Time;durP1;ratioP1;P1;durP2;ratioP2;P2;SDS_P1;SDS_P2;PMS_P1;PMS_P2;Temp;Humidity;BMP_temperature;BMP_pressure;BME280_temperature;BME280_humidity;BME280_pressure;Samples;Min_cycle;Max_cycle;Signal;HPM_P1;HPM_P2
2021/03/31 00:01:24;;;;;;;69.25;46.67;;;18.40;44.40;;;;;;5003134;28;20050;-68
2021/03/31 00:03:50;;;;;;;62.75;44.45;;;18.40;44.50;;;;;;4999770;28;20053;-67
2021/03/31 00:06:15;;;;;;;66.72;44.78;;;18.40;44.70;;;;;;5002553;28;20046;-67
2021/03/31 00:08:42;;;;;;;65.43;43.42;;;18.40;44.90;;;;;;5004999;28;20049;-67
2021/03/31 00:11:08;;;;;;;65.93;45.13;;;18.30;44.60;;;;;;5002573;28;20546;-67
2021/03/31 00:13:34;;;;;;;65.43;45.30;;;18.30;44.80;;;;;;5005928;28;20049;-67
2021/03/31 00:15:59;;;;;;;67.90;45.10;;;18.30;44.70;;;;;;5005084;28;20045;-67
2021/03/31 00:18:26;;;;;;;66.63;44.45;;;18.30;44.90;;;;;;5004259;28;20053;-67
2021/03/31 00:20:52;;;;;;;63.95;43.05;;;18.30;44.90;;;;;;5006089;28;20037;-67
2021/03/31 00:23:21;;;;;;;63.55;43.17;;;18.30;45.10;;;;;;5003237;28;20038;-68
2021/03/31 00:25:47;;;;;;;65.05;44.17;;;18.30;45.10;;;;;;4995166;28;20121;-67
2021/03/31 00:28:13;;;;;;;63.22;44.38;;;18.20;45.40;;;;;;5005347;28;20168;-67
2021/03/31 00:30:40;;;;;;;62.47;43.50;;;18.20;45.30;;;;;;5004371;28;20044;-67
2021/03/31 00:33:06;;;;;;;63.78;44.28;;;18.20;45.30;;;;;;4996095;28;20045;-59
2021/03/31 00:35:32;;;;;;;66.07;44.28;;;18.20;45.30;;;;;;5002252;28;20495;-67
2021/03/31 00:37:58;;;;;;;62.10;42.92;;;18.20;45.30;;;;;;4996586;28;20038;-67
2021/03/31 00:40:36;;;;;;;59.92;42.08;;;18.20;45.40;;;;;;5000551;28;20038;-67
2021/03/31 00:43:02;;;;;;;63.63;43.78;;;18.20;45.70;;;;;;5000197;28;20046;-68
2021/03/31 00:45:27;;;;;;;65.13;44.40;;;18.10;45.30;;;;;;5001062;28;20104;-68
2021/03/31 00:47:53;;;;;;;63.65;44.05;;;18.10;45.50;;;;;;4992591;28;20042;-68
2021/03/31 00:50:19;;;;;;;60.15;42.80;;;18.10;45.60;;;;;;5002425;28;20128;-68
2021/03/31 00:52:48;;;;;;;67.35;44.30;;;18.10;45.50;;;;;;4999538;28;20041;-67
2021/03/31 00:55:15;;;;;;;71.43;44.70;;;18.10;45.70;;;;;;5001853;28;20395;-67
2021/03/31 00:57:41;;;;;;;65.25;44.58;;;18.10;45.60;;;;;;4998136;28;20077;-68
2021/03/31 01:00:09;;;;;;;62.95;44.70;;;18.10;45.70;;;;;;4998624;28;20113;-68
2021/03/31 01:02:37;;;;;;;69.90;47.03;;;18.10;45.60;;;;;;5002958;28;20050;-68
2021/03/31 01:05:12;;;;;;;69.45;45.53;;;18.00;45.60;;;;;;5000020;28;20037;-67
2021/03/31 01:07:38;;;;;;;68.68;45.70;;;18.00;45.70;;;;;;4998438;28;20046;-67
2021/03/31 01:10:06;;;;;;;69.00;45.30;;;18.00;45.70;;;;;;4995864;28;20053;-67
2021/03/31 01:13:16;;;;;;;65.43;44.28;;;18.00;45.70;;;;;;5002363;28;20042;-67
2021/03/31 01:16:04;;;;;;;59.60;43.30;;;18.00;46.20;;;;;;4959754;28;20124;-65
2021/03/31 01:18:51;;;;;;;66.00;45.15;;;17.90;46.00;;;;;;4995894;28;20046;-67
2021/03/31 01:21:35;;;;;;;62.00;45.00;;;17.90;46.30;;;;;;4986265;28;20052;-67
2021/03/31 01:24:06;;;;;;;61.75;44.13;;;17.90;46.20;;;;;;5002911;28;20041;-67
2021/03/31 01:27:01;;;;;;;65.32;45.45;;;17.80;46.40;;;;;;4993318;28;20048;-67
2021/03/31 01:29:31;;;;;;;65.63;45.15;;;17.80;46.50;;;;;;4977499;28;20042;-67
2021/03/31 01:32:20;;;;;;;63.88;43.80;;;17.70;46.60;;;;;;4997396;28;20034;-67
2021/03/31 01:34:53;;;;;;;64.60;45.40;;;17.70;46.50;;;;;;4980841;28;20051;-67
2021/03/31 01:37:30;;;;;;;62.05;44.33;;;17.80;46.60;;;;;;5012138;28;20053;-67
2021/03/31 01:39:57;;;;;;;66.10;44.55;;;17.70;46.60;;;;;;4997696;28;20065;-67
2021/03/31 01:42:26;;;;;;;61.50;44.50;;;17.70;46.60;;;;;;4998833;28;20054;-67
2021/03/31 01:44:57;;;;;;;62.45;44.33;;;17.70;46.50;;;;;;5003685;28;20483;-67
2021/03/31 01:47:25;;;;;;;70.63;45.40;;;17.70;46.70;;;;;;5006592;28;20045;-67
2021/03/31 01:49:53;;;;;;;58.55;42.17;;;17.70;46.80;;;;;;5002765;28;20038;-67
2021/03/31 01:52:20;;;;;;;63.67;44.17;;;17.60;46.70;;;;;;5008340;28;20036;-67
2021/03/31 01:54:48;;;;;;;71.13;45.28;;;17.70;46.80;;;;;;5003683;28;20029;-67
2021/03/31 01:57:14;;;;;;;62.88;44.88;;;17.70;46.60;;;;;;5006573;28;20026;-67
2021/03/31 01:59:42;;;;;;;63.88;44.85;;;17.60;46.50;;;;;;5010107;28;20033;-66
2021/03/31 02:02:10;;;;;;;62.92;43.47;;;17.70;46.60;;;;;;5003491;28;20810;-66
2021/03/31 02:04:39;;;;;;;59.85;44.05;;;17.60;46.70;;;;;;5003838;28;20096;-67
2021/03/31 02:07:06;;;;;;;62.78;43.83;;;17.60;46.90;;;;;;5003739;28;20085;-67
2021/03/31 02:09:41;;;;;;;66.18;46.25;;;17.60;46.90;;;;;;5000558;28;20033;-67
2021/03/31 02:12:13;;;;;;;61.05;43.03;;;17.60;47.20;;;;;;4999274;28;20046;-59
2021/03/31 02:14:42;;;;;;;62.30;44.53;;;17.60;47.00;;;;;;5005182;28;20132;-67
2021/03/31 02:17:09;;;;;;;66.97;45.53;;;17.60;47.40;;;;;;4997619;28;20054;-65
2021/03/31 02:19:38;;;;;;;61.85;44.70;;;17.60;47.10;;;;;;5005873;28;20037;-67
2021/03/31 02:22:06;;;;;;;71.70;46.28;;;17.50;47.30;;;;;;5005171;28;20578;-66
2021/03/31 02:24:33;;;;;;;66.05;46.42;;;17.50;47.50;;;;;;4999196;28;20101;-67
2021/03/31 02:26:59;;;;;;;66.28;46.53;;;17.50;47.80;;;;;;5003788;28;20046;-66
2021/03/31 02:29:25;;;;;;;67.00;49.38;;;17.50;47.80;;;;;;5004935;28;20046;-67
2021/03/31 02:31:52;;;;;;;65.47;48.00;;;17.40;47.90;;;;;;4999959;28;20045;-66
2021/03/31 02:34:20;;;;;;;70.25;49.58;;;17.40;48.20;;;;;;5003076;28;20034;-66
2021/03/31 02:36:46;;;;;;;67.95;48.55;;;17.40;48.20;;;;;;5004253;28;20125;-66
2021/03/31 02:39:14;;;;;;;70.10;49.08;;;17.30;48.30;;;;;;4996997;28;20395;-67
2021/03/31 02:41:44;;;;;;;70.18;49.13;;;17.30;48.30;;;;;;4998022;28;20045;-67
2021/03/31 02:44:15;;;;;;;69.35;49.50;;;17.30;48.60;;;;;;5007658;28;20069;-66
2021/03/31 02:46:42;;;;;;;67.43;46.95;;;17.30;48.70;;;;;;4997224;28;20143;-66
2021/03/31 02:49:10;;;;;;;70.88;51.05;;;17.20;48.70;;;;;;5010025;28;20121;-64
2021/03/31 02:51:38;;;;;;;71.55;50.38;;;17.20;48.50;;;;;;5009292;28;20045;-67
2021/03/31 02:54:06;;;;;;;64.00;49.38;;;17.20;48.40;;;;;;4997880;28;20041;-67
2021/03/31 02:56:33;;;;;;;69.70;50.33;;;17.30;48.50;;;;;;5004796;28;20470;-67
2021/03/31 02:59:02;;;;;;;73.57;50.40;;;17.20;48.60;;;;;;5005888;28;20046;-68
2021/03/31 03:01:28;;;;;;;69.57;49.55;;;17.20;48.70;;;;;;5004559;28;20211;-67
2021/03/31 03:03:57;;;;;;;69.85;49.63;;;17.10;48.70;;;;;;5003771;28;20099;-67
2021/03/31 03:06:29;;;;;;;72.22;50.20;;;17.10;48.80;;;;;;4998888;28;20145;-66
2021/03/31 03:08:56;;;;;;;68.60;48.42;;;17.10;48.90;;;;;;5001394;28;20068;-67
2021/03/31 03:11:25;;;;;;;73.20;50.13;;;17.00;49.10;;;;;;5006435;28;20042;-68
2021/03/31 03:13:51;;;;;;;74.13;50.67;;;17.10;48.90;;;;;;4999758;28;20042;-68
2021/03/31 03:16:18;;;;;;;70.25;49.63;;;17.00;49.00;;;;;;5005194;28;20064;-67
2021/03/31 03:18:43;;;;;;;69.78;48.47;;;17.00;49.10;;;;;;4999115;28;20038;-66
2021/03/31 03:21:10;;;;;;;71.45;49.38;;;16.90;49.30;;;;;;5008798;28;20125;-67
2021/03/31 03:23:37;;;;;;;64.95;47.05;;;16.90;49.30;;;;;;4992797;28;20556;-68
2021/03/31 03:26:04;;;;;;;61.88;46.72;;;17.00;49.30;;;;;;5006127;28;20069;-68
2021/03/31 03:28:31;;;;;;;68.00;48.95;;;16.90;49.30;;;;;;5003845;28;20037;-68
2021/03/31 03:30:58;;;;;;;67.90;47.97;;;16.90;49.40;;;;;;5006716;28;20069;-67
2021/03/31 03:33:25;;;;;;;70.35;49.40;;;16.90;49.50;;;;;;5006980;28;20046;-68
2021/03/31 03:35:51;;;;;;;65.63;47.45;;;16.80;49.50;;;;;;4993795;28;20064;-67
2021/03/31 03:38:17;;;;;;;63.65;47.92;;;16.80;50.00;;;;;;5004808;28;20499;-67
2021/03/31 03:40:45;;;;;;;68.07;48.28;;;16.80;49.50;;;;;;4995586;28;20034;-67
2021/03/31 03:43:14;;;;;;;69.00;47.83;;;16.80;49.60;;;;;;5001017;28;20384;-67
2021/03/31 03:45:42;;;;;;;66.20;47.13;;;16.70;49.60;;;;;;5002725;28;20041;-66
2021/03/31 03:48:09;;;;;;;66.60;48.35;;;16.70;49.60;;;;;;5004646;28;20480;-64
2021/03/31 03:50:35;;;;;;;65.05;45.58;;;16.70;49.60;;;;;;5001094;28;21729;-67
2021/03/31 03:53:01;;;;;;;68.32;49.40;;;16.70;50.00;;;;;;5008360;28;20038;-67
2021/03/31 03:55:27;;;;;;;67.05;47.83;;;16.70;49.80;;;;;;5002802;28;20510;-67
2021/03/31 03:57:53;;;;;;;68.88;49.92;;;16.60;49.90;;;;;;5006648;28;20034;-67
2021/03/31 04:00:28;;;;;;;69.25;50.55;;;16.70;50.00;;;;;;5004553;28;20493;-67
2021/03/31 04:02:54;;;;;;;;;;;16.70;50.10;;;;;;5003770;28;20057;-67
2021/03/31 04:05:20;;;;;;;68.85;48.88;;;16.60;50.80;;;;;;4999119;28;19988;-67
2021/03/31 04:07:46;;;;;;;66.20;49.00;;;16.60;50.10;;;;;;5007930;28;20042;-67
2021/03/31 04:10:13;;;;;;;72.60;50.95;;;16.60;50.10;;;;;;4982712;28;20053;-67
2021/03/31 04:12:40;;;;;;;68.28;49.13;;;16.60;50.10;;;;;;5001860;28;20038;-67
2021/03/31 04:15:08;;;;;;;67.65;48.45;;;16.60;50.10;;;;;;5002893;28;20103;-68
2021/03/31 04:17:37;;;;;;;65.72;48.78;;;16.50;50.20;;;;;;5001970;28;20046;-68
2021/03/31 04:20:04;;;;;;;68.28;47.60;;;16.50;50.40;;;;;;4999146;28;20503;-68
2021/03/31 04:22:30;;;;;;;65.28;48.42;;;16.50;50.40;;;;;;4997167;28;20046;-68
2021/03/31 04:24:56;;;;;;;64.68;48.95;;;16.50;50.40;;;;;;5006672;28;20036;-68
2021/03/31 04:27:23;;;;;;;69.60;49.05;;;16.50;50.40;;;;;;4999053;28;20053;-68
2021/03/31 04:29:50;;;;;;;69.22;48.13;;;16.50;50.50;;;;;;5004093;28;20033;-67
2021/03/31 04:32:17;;;;;;;70.40;48.33;;;16.50;50.50;;;;;;4997403;28;20041;-68
2021/03/31 04:34:44;;;;;;;66.70;48.38;;;16.50;50.60;;;;;;5004992;28;20046;-68
2021/03/31 04:37:10;;;;;;;61.08;45.70;;;16.40;50.60;;;;;;5001524;28;20049;-67
2021/03/31 04:39:36;;;;;;;67.25;48.80;;;16.40;50.80;;;;;;5007146;28;20411;-68
2021/03/31 04:42:02;;;;;;;69.72;48.63;;;16.40;50.80;;;;;;5000955;28;20080;-68
2021/03/31 04:44:28;;;;;;;71.32;50.03;;;16.40;50.80;;;;;;5007082;28;20047;-67
2021/03/31 04:46:54;;;;;;;71.78;48.97;;;16.30;50.70;;;;;;5002852;28;20050;-68
2021/03/31 04:49:19;;;;;;;65.32;48.85;;;16.40;51.20;;;;;;5002305;28;20034;-67
2021/03/31 04:51:45;;;;;;;68.00;47.40;;;16.40;51.00;;;;;;5002143;28;20092;-67
2021/03/31 04:54:11;;;;;;;68.65;47.15;;;16.30;50.90;;;;;;5004424;28;20045;-66
2021/03/31 04:56:36;;;;;;;69.00;48.35;;;16.40;51.10;;;;;;5004164;28;20921;-67
2021/03/31 04:59:02;;;;;;;65.20;47.88;;;16.30;51.00;;;;;;5003266;28;20034;-67
2021/03/31 05:01:27;;;;;;;66.95;48.05;;;16.30;51.00;;;;;;5002770;28;20039;-67
2021/03/31 05:03:53;;;;;;;64.82;47.60;;;16.30;50.90;;;;;;4995959;28;20126;-67
2021/03/31 05:06:19;;;;;;;68.70;48.58;;;16.30;51.00;;;;;;5002427;28;20049;-67
2021/03/31 05:08:44;;;;;;;65.18;47.78;;;16.30;51.00;;;;;;4998327;28;20034;-67
2021/03/31 05:11:11;;;;;;;67.82;47.83;;;16.30;51.10;;;;;;5006869;28;20503;-67
2021/03/31 05:13:36;;;;;;;65.95;45.53;;;16.30;51.00;;;;;;4995167;28;20034;-67
2021/03/31 05:16:02;;;;;;;64.53;47.28;;;16.30;51.00;;;;;;4995552;28;20045;-67
2021/03/31 05:18:27;;;;;;;67.30;47.97;;;16.30;51.00;;;;;;4993764;28;20034;-67
2021/03/31 05:20:53;;;;;;;68.18;48.70;;;16.30;51.10;;;;;;5003831;28;20080;-67
2021/03/31 05:23:19;;;;;;;63.47;46.13;;;16.30;51.00;;;;;;4995624;28;20042;-67
2021/03/31 05:25:44;;;;;;;58.33;45.13;;;16.30;51.10;;;;;;5003620;28;20042;-67
2021/03/31 05:28:10;;;;;;;66.10;46.90;;;16.30;51.20;;;;;;5001552;28;20038;-66
2021/03/31 05:30:35;;;;;;;65.43;46.40;;;16.30;51.30;;;;;;4994330;28;20042;-68
2021/03/31 05:33:01;;;;;;;64.45;46.90;;;16.40;51.40;;;;;;5002580;28;20163;-67
2021/03/31 05:35:27;;;;;;;60.90;46.60;;;16.40;51.50;;;;;;4994242;28;20432;-68
2021/03/31 05:37:52;;;;;;;66.88;46.30;;;16.40;51.20;;;;;;5001795;28;20364;-68
2021/03/31 05:40:18;;;;;;;67.38;47.70;;;16.40;51.20;;;;;;4997193;28;20049;-70
2021/03/31 05:42:44;;;;;;;70.85;46.47;;;16.40;51.20;;;;;;4998248;28;20046;-68
2021/03/31 05:45:12;;;;;;;63.40;47.97;;;16.40;51.00;;;;;;5001076;28;20050;-67
2021/03/31 05:47:43;;;;;;;71.35;46.75;;;16.40;51.00;;;;;;4996388;28;20046;-69
2021/03/31 05:50:12;;;;;;;63.30;47.13;;;16.50;51.10;;;;;;4994990;28;20046;-69
2021/03/31 05:52:38;;;;;;;72.72;47.22;;;16.50;51.20;;;;;;4992276;28;20125;-69
2021/03/31 05:55:05;;;;;;;67.28;45.83;;;16.50;51.10;;;;;;4993061;28;20129;-68
2021/03/31 05:57:35;;;;;;;67.78;46.30;;;16.40;51.30;;;;;;5016687;28;20070;-69
2021/03/31 06:00:07;;;;;;;63.85;47.75;;;16.50;51.00;;;;;;5001612;28;20046;-69
2021/03/31 06:02:34;;;;;;;66.72;46.90;;;16.50;50.70;;;;;;5010421;28;20038;-68
2021/03/31 06:05:00;;;;;;;68.40;45.97;;;16.50;51.00;;;;;;4998992;28;20049;-68
2021/03/31 06:07:25;;;;;;;68.15;47.40;;;16.60;50.90;;;;;;5008652;28;20145;-68
2021/03/31 06:10:06;;;;;;;66.68;47.50;;;16.60;50.70;;;;;;5005046;28;20124;-68
2021/03/31 06:12:34;;;;;;;69.15;48.50;;;16.60;50.90;;;;;;5006663;28;20033;-68
2021/03/31 06:15:16;;;;;;;67.70;49.38;;;16.60;50.60;;;;;;5002598;28;20471;-68
2021/03/31 06:17:49;;;;;;;70.40;52.05;;;16.70;51.10;;;;;;5006245;28;20170;-68
2021/03/31 06:20:35;;;;;;;70.20;51.13;;;16.70;51.50;;;;;;5002341;28;20419;-68
2021/03/31 06:23:36;;;;;;;73.45;52.88;;;16.70;51.90;;;;;;5007886;28;20061;-68
2021/03/31 06:28:33;;;;;;;71.13;54.30;;;16.60;51.60;;;;;;4996143;28;20039;-68
2021/03/31 06:31:14;;;;;;;73.30;52.72;;;16.60;52.00;;;;;;4980225;28;20030;-66
2021/03/31 06:33:42;;;;;;;76.55;53.60;;;16.70;52.10;;;;;;5004609;28;20113;-67
2021/03/31 06:36:10;;;;;;;72.20;52.00;;;16.70;51.70;;;;;;5000976;28;20038;-68
2021/03/31 06:38:45;;;;;;;75.13;55.45;;;16.70;51.60;;;;;;5007853;28;20100;-67
2021/03/31 06:41:17;;;;;;;74.50;54.13;;;16.70;51.70;;;;;;4994508;28;20046;-66
2021/03/31 06:44:24;;;;;;;76.18;55.83;;;16.70;51.70;;;;;;5004531;28;20034;-67
2021/03/31 06:46:54;;;;;;;82.30;56.75;;;16.70;52.10;;;;;;4976616;28;20054;-67
2021/03/31 06:49:20;;;;;;;78.60;55.63;;;16.70;51.70;;;;;;5004898;28;20122;-67
2021/03/31 06:51:45;;;;;;;81.10;56.28;;;16.80;51.80;;;;;;5003887;28;20129;-68
2021/03/31 06:54:19;;;;;;;77.05;55.75;;;16.90;51.50;;;;;;4994787;28;20038;-67
2021/03/31 06:56:56;;;;;;;78.15;52.95;;;16.90;51.60;;;;;;5003268;28;20037;-67
2021/03/31 06:59:29;;;;;;;76.68;55.60;;;16.90;51.10;;;;;;5007130;28;20141;-67
2021/03/31 07:01:56;;;;;;;77.70;55.70;;;16.90;51.20;;;;;;4981999;28;20022;-67
2021/03/31 07:04:34;;;;;;;80.38;57.28;;;17.00;50.80;;;;;;5006408;28;20096;-67
2021/03/31 07:07:11;;;;;;;75.45;55.22;;;17.10;50.60;;;;;;4976215;28;20046;-68
2021/03/31 07:09:40;;;;;;;81.97;57.05;;;17.10;50.60;;;;;;5010136;28;20147;-67
2021/03/31 07:12:18;;;;;;;79.68;56.05;;;17.10;50.20;;;;;;5003231;28;20088;-67
2021/03/31 07:14:47;;;;;;;82.78;57.28;;;17.20;51.20;;;;;;5003026;28;20555;-67
2021/03/31 07:17:20;;;;;;;81.97;56.88;;;17.20;50.40;;;;;;5006874;28;20046;-67
2021/03/31 07:19:48;;;;;;;77.22;57.33;;;17.20;50.10;;;;;;4990767;28;20046;-67
2021/03/31 07:22:14;;;;;;;81.32;56.60;;;17.30;50.00;;;;;;5002984;28;20112;-67
2021/03/31 07:24:40;;;;;;;84.25;58.85;;;17.30;50.00;;;;;;5000339;28;20132;-68
2021/03/31 07:27:08;;;;;;;79.90;56.90;;;17.40;49.80;;;;;;5005874;28;20474;-67
2021/03/31 07:29:38;;;;;;;78.25;57.75;;;17.40;49.60;;;;;;4999135;28;20038;-67
2021/03/31 07:32:08;;;;;;;80.40;56.75;;;17.40;49.40;;;;;;5007080;28;20056;-67
2021/03/31 07:34:37;;;;;;;80.20;58.83;;;17.40;49.40;;;;;;4996865;28;20034;-67
2021/03/31 07:37:03;;;;;;;82.03;58.53;;;17.40;49.30;;;;;;5006018;28;20044;-68
2021/03/31 07:39:30;;;;;;;80.43;57.83;;;17.40;49.20;;;;;;5001477;28;20037;-68
2021/03/31 07:41:57;;;;;;;80.40;57.38;;;17.50;49.30;;;;;;5007346;28;20069;-68
2021/03/31 07:44:28;;;;;;;82.97;55.78;;;17.60;49.50;;;;;;4997823;28;20467;-67
2021/03/31 07:46:55;;;;;;;81.97;58.70;;;17.60;49.00;;;;;;4992607;28;20073;-68
2021/03/31 07:49:22;;;;;;;84.80;57.97;;;17.70;48.80;;;;;;4998373;28;20036;-67
2021/03/31 07:52:03;;;;;;;80.75;57.70;;;17.70;48.90;;;;;;5002854;28;20048;-67
2021/03/31 07:54:31;;;;;;;83.20;57.03;;;17.70;48.90;;;;;;5000899;28;20120;-67
2021/03/31 07:56:59;;;;;;;83.18;59.45;;;17.80;47.90;;;;;;5005039;28;20041;-67
2021/03/31 07:59:25;;;;;;;87.32;58.03;;;17.80;47.60;;;;;;5002670;28;20129;-67
2021/03/31 08:01:53;;;;;;;78.22;55.75;;;17.90;48.20;;;;;;5002297;28;20125;-67
2021/03/31 08:04:25;;;;;;;81.70;56.85;;;17.90;47.40;;;;;;4998754;28;20033;-68
2021/03/31 08:07:00;;;;;;;80.88;56.30;;;17.90;47.90;;;;;;4991032;28;20477;-68
2021/03/31 08:09:29;;;;;;;84.03;56.17;;;18.00;47.70;;;;;;4994287;28;20052;-67
2021/03/31 08:12:04;;;;;;;79.72;55.08;;;18.10;47.70;;;;;;5005711;28;20045;-67
2021/03/31 08:14:35;;;;;;;82.78;55.97;;;18.10;47.00;;;;;;5003825;28;20041;-68
2021/03/31 08:17:12;;;;;;;83.32;57.25;;;18.10;47.10;;;;;;5001735;28;20054;-67
2021/03/31 08:19:44;;;;;;;82.25;57.95;;;18.20;47.00;;;;;;5003001;28;20364;-67
2021/03/31 08:22:45;;;;;;;79.93;56.95;;;18.20;46.50;;;;;;5002048;28;20041;-67
2021/03/31 08:25:15;;;;;;;79.53;57.05;;;18.30;46.60;;;;;;4973868;28;20052;-67
2021/03/31 08:27:58;;;;;;;77.60;53.67;;;18.30;46.40;;;;;;4995969;28;20057;-67
2021/03/31 08:30:24;;;;;;;81.60;55.50;;;18.30;46.10;;;;;;4973962;28;20026;-67
2021/03/31 08:33:39;;;;;;;81.43;56.67;;;18.40;46.00;;;;;;5004757;28;20042;-67
2021/03/31 08:36:05;;;;;;;76.33;53.73;;;18.50;45.90;;;;;;4962462;28;20044;-67
2021/03/31 08:38:31;;;;;;;77.00;55.90;;;18.50;45.80;;;;;;4999013;28;20038;-68
2021/03/31 08:40:56;;;;;;;74.45;54.55;;;18.60;45.60;;;;;;5002320;28;20042;-67
2021/03/31 08:43:22;;;;;;;80.00;55.42;;;18.60;45.30;;;;;;4992895;28;20045;-67
2021/03/31 08:45:52;;;;;;;73.55;51.20;;;18.70;45.40;;;;;;5005057;28;20038;-67
2021/03/31 08:48:39;;;;;;;76.45;50.67;;;18.70;45.30;;;;;;5005448;28;20037;-66
2021/03/31 08:51:13;;;;;;;70.43;50.17;;;18.80;44.40;;;;;;5002340;28;20121;-67
2021/03/31 08:53:39;;;;;;;71.80;51.50;;;18.90;44.40;;;;;;4999165;28;20057;-66
2021/03/31 08:56:04;;;;;;;75.43;50.38;;;18.90;44.10;;;;;;5011467;28;20423;-66
2021/03/31 08:58:30;;;;;;;79.85;54.67;;;19.00;43.90;;;;;;5000662;28;20033;-67
2021/03/31 09:00:59;;;;;;;73.68;51.50;;;18.90;43.40;;;;;;5003411;28;20050;-67
2021/03/31 09:03:28;;;;;;;78.72;54.38;;;19.00;44.50;;;;;;5002827;28;20444;-67
2021/03/31 09:05:59;;;;;;;83.45;56.55;;;19.10;44.10;;;;;;4995767;28;20084;-67
2021/03/31 09:08:26;;;;;;;76.28;55.97;;;19.20;44.10;;;;;;5010387;28;20084;-67
2021/03/31 09:10:53;;;;;;;80.07;56.65;;;19.20;44.00;;;;;;4996801;28;20116;-66
2021/03/31 09:13:27;;;;;;;78.78;55.33;;;19.20;44.30;;;;;;5011417;28;20092;-66
2021/03/31 09:15:57;;;;;;;77.05;54.83;;;19.30;44.00;;;;;;5005480;28;20399;-67
2021/03/31 09:18:23;;;;;;;79.72;55.97;;;19.40;44.00;;;;;;5001202;28;20069;-67
2021/03/31 09:20:49;;;;;;;72.45;53.28;;;19.50;43.80;;;;;;5003415;28;20034;-67
2021/03/31 09:23:33;;;;;;;74.38;53.97;;;19.50;43.70;;;;;;5004030;28;20376;-67
2021/03/31 09:26:02;;;;;;;74.93;53.97;;;19.60;43.50;;;;;;5004806;28;20107;-67
2021/03/31 09:28:28;;;;;;;74.30;53.10;;;19.60;43.50;;;;;;4997618;28;20040;-67
2021/03/31 09:30:58;;;;;;;74.10;53.67;;;19.60;43.50;;;;;;5006062;28;20119;-67
2021/03/31 09:33:30;;;;;;;70.95;50.58;;;19.70;43.50;;;;;;5000038;28;20042;-67
2021/03/31 09:36:13;;;;;;;72.57;49.65;;;19.80;42.90;;;;;;5001669;28;20049;-67
2021/03/31 09:38:38;;;;;;;73.30;51.85;;;19.90;42.60;;;;;;4990198;28;20067;-68
2021/03/31 09:41:06;;;;;;;67.80;49.20;;;19.90;42.50;;;;;;5013965;28;20084;-67
2021/03/31 09:43:33;;;;;;;63.58;48.78;;;20.00;42.40;;;;;;4989367;28;20084;-67
2021/03/31 09:45:59;;;;;;;66.35;48.60;;;20.00;42.50;;;;;;5008658;28;20041;-67
2021/03/31 09:48:25;;;;;;;65.03;48.15;;;20.20;42.00;;;;;;5003114;28;20088;-67
2021/03/31 09:50:53;;;;;;;69.93;48.28;;;20.20;41.50;;;;;;5010357;28;20041;-67
2021/03/31 09:53:25;;;;;;;65.22;46.58;;;20.20;41.60;;;;;;5005300;28;20073;-67
2021/03/31 09:59:13;;;;;;;69.18;46.85;;;20.40;40.70;;;;;;4978923;28;20048;-62
2021/03/31 10:01:39;;;;;;;68.93;47.30;;;20.30;40.40;;;;;;4983621;28;20049;-67
2021/03/31 10:04:06;;;;;;;70.25;44.92;;;20.30;40.40;;;;;;5015121;28;20038;-67
2021/03/31 10:06:31;;;;;;;64.57;47.53;;;20.50;40.00;;;;;;5013828;28;20054;-67
2021/03/31 10:08:57;;;;;;;63.50;44.63;;;20.50;39.90;;;;;;4987396;28;20038;-67
2021/03/31 10:11:35;;;;;;;68.07;45.58;;;20.70;40.20;;;;;;5005775;28;20038;-67
2021/03/31 10:14:03;;;;;;;66.60;45.28;;;20.70;39.60;;;;;;5002459;28;20074;-67
2021/03/31 10:16:37;;;;;;;63.42;46.08;;;20.80;39.60;;;;;;5005948;28;20121;-67
2021/03/31 10:19:05;;;;;;;66.28;46.42;;;20.90;39.20;;;;;;5011503;28;20068;-67
2021/03/31 10:21:33;;;;;;;66.32;46.28;;;20.80;39.10;;;;;;5008611;28;20046;-67
2021/03/31 10:24:01;;;;;;;65.63;46.15;;;21.00;39.00;;;;;;4999781;28;20042;-67
2021/03/31 10:26:29;;;;;;;64.30;46.97;;;21.00;38.90;;;;;;4999102;28;20050;-67
2021/03/31 10:29:23;;;;;;;68.63;46.28;;;21.00;39.10;;;;;;5012015;28;20081;-67
2021/03/31 10:31:51;;;;;;;64.05;46.35;;;21.10;38.80;;;;;;4978937;28;20036;-67
2021/03/31 10:34:18;;;;;;;69.03;49.20;;;21.10;38.90;;;;;;5007405;28;20049;-67
2021/03/31 10:50:57;;;;;;;69.78;49.60;;;21.60;37.30;;;;;;5009650;28;20092;-67
2021/03/31 10:53:36;;;;;;;;;;;21.80;37.20;;;;;;4975722;28;20026;-66
2021/03/31 10:56:04;;;;;;;66.40;47.90;;;21.80;36.20;;;;;;5020485;28;19913;-67
2021/03/31 10:58:29;;;;;;;64.03;45.35;;;21.80;37.30;;;;;;5006757;28;20050;-67
2021/03/31 11:00:55;;;;;;;68.93;44.58;;;21.90;37.00;;;;;;5007881;28;20041;-67
2021/03/31 11:03:24;;;;;;;62.67;43.75;;;22.10;36.00;;;;;;5005672;28;20034;-67
2021/03/31 11:05:50;;;;;;;61.40;45.83;;;22.20;35.20;;;;;;5012808;28;20053;-67
2021/03/31 11:08:16;;;;;;;68.30;46.55;;;22.20;35.60;;;;;;5004562;28;20050;-66
2021/03/31 11:10:41;;;;;;;65.07;43.25;;;22.20;35.70;;;;;;5010109;28;20120;-67
2021/03/31 11:13:08;;;;;;;63.42;46.22;;;22.40;35.20;;;;;;5004375;28;20095;-67
2021/03/31 11:15:33;;;;;;;67.60;47.75;;;22.50;34.80;;;;;;5006625;28;20041;-67
2021/03/31 11:28:07;;;;;;;62.83;45.40;;;22.90;34.70;;;;;;5003545;28;20053;-66
2021/03/31 11:30:34;;;;;;;60.88;47.00;;;23.00;34.80;;;;;;5006656;28;20054;-67
2021/03/31 11:32:59;;;;;;;58.58;43.75;;;23.00;33.70;;;;;;5001660;28;20403;-67
2021/03/31 11:35:25;;;;;;;64.30;45.28;;;22.90;34.60;;;;;;5003670;28;20026;-67
2021/03/31 11:37:51;;;;;;;59.58;46.85;;;23.20;34.20;;;;;;4998866;28;20049;-67
2021/03/31 11:40:16;;;;;;;57.47;42.90;;;23.10;33.20;;;;;;4997228;28;20483;-67
2021/03/31 11:42:42;;;;;;;62.65;45.00;;;23.40;33.40;;;;;;5002647;28;20050;-68
2021/03/31 11:45:09;;;;;;;64.15;47.58;;;23.40;33.40;;;;;;4999665;28;20090;-68
2021/03/31 11:47:34;;;;;;;59.35;46.38;;;23.80;32.80;;;;;;5004678;28;20060;-68
2021/03/31 11:50:00;;;;;;;68.15;48.20;;;23.60;32.30;;;;;;5001032;28;20491;-67
2021/03/31 11:52:25;;;;;;;61.30;43.75;;;23.50;31.80;;;;;;5004666;28;20042;-67
2021/03/31 11:54:51;;;;;;;57.67;41.47;;;23.70;32.60;;;;;;4976379;28;20057;-67
2021/03/31 11:57:17;;;;;;;56.63;39.97;;;23.60;31.90;;;;;;5006571;28;20037;-67
2021/03/31 11:59:42;;;;;;;57.13;38.90;;;23.90;31.70;;;;;;5001049;28;20049;-68
2021/03/31 12:02:09;;;;;;;60.42;40.33;;;24.40;31.10;;;;;;5004610;28;20087;-67
2021/03/31 12:04:34;;;;;;;61.58;42.50;;;24.40;30.70;;;;;;4993744;28;20037;-68
2021/03/31 12:07:02;;;;;;;54.53;37.97;;;24.50;30.40;;;;;;4996619;28;20404;-67
2021/03/31 12:09:28;;;;;;;57.47;40.17;;;25.20;29.90;;;;;;4996571;28;20483;-67
2021/03/31 12:11:54;;;;;;;52.92;37.67;;;28.80;31.10;;;;;;4998401;28;20048;-68
2021/03/31 12:14:19;;;;;;;52.40;36.95;;;32.60;22.90;;;;;;4999972;28;20090;-68
2021/03/31 12:16:45;;;;;;;50.50;37.58;;;32.10;21.80;;;;;;4992954;28;20133;-67
2021/03/31 12:19:11;;;;;;;59.95;38.63;;;35.70;19.90;;;;;;5004812;28;20044;-68
2021/03/31 12:21:36;;;;;;;57.85;40.00;;;37.10;18.00;;;;;;5002875;28;20078;-68
2021/03/31 12:24:03;;;;;;;49.63;37.13;;;38.10;17.40;;;;;;4998027;28;20472;-70
2021/03/31 12:26:28;;;;;;;52.88;37.78;;;38.00;16.60;;;;;;4998789;28;20045;-68
2021/03/31 12:28:56;;;;;;;51.83;35.97;;;38.20;16.20;;;;;;4998608;28;20080;-69
2021/03/31 12:31:22;;;;;;;50.58;36.05;;;39.20;16.00;;;;;;4999547;28;20037;-68
2021/03/31 12:33:48;;;;;;;54.75;40.63;;;39.80;15.00;;;;;;5001294;28;20348;-68
2021/03/31 12:36:14;;;;;;;55.97;40.15;;;40.30;15.40;;;;;;5002192;28;20040;-68
2021/03/31 12:38:39;;;;;;;57.90;41.60;;;39.30;15.50;;;;;;5004794;28;20046;-68
2021/03/31 12:41:05;;;;;;;57.45;41.08;;;37.70;16.20;;;;;;4999045;28;20041;-68
2021/03/31 12:43:32;;;;;;;61.47;41.47;;;39.00;16.20;;;;;;5002997;28;20046;-68
2021/03/31 12:45:58;;;;;;;57.28;40.83;;;39.10;15.60;;;;;;4998731;28;20084;-69
2021/03/31 12:48:24;;;;;;;56.80;39.35;;;39.80;14.80;;;;;;4997523;28;20033;-67
2021/03/31 12:50:55;;;;;;;49.33;37.10;;;40.60;14.90;;;;;;4990582;28;20033;-67
2021/03/31 12:53:29;;;;;;;52.97;37.38;;;40.60;14.40;;;;;;5000545;28;20046;-68
2021/03/31 12:55:56;;;;;;;48.05;34.47;;;40.80;14.30;;;;;;5001478;28;21889;-67
2021/03/31 12:58:23;;;;;;;49.88;37.08;;;41.20;14.60;;;;;;5002603;28;20029;-67
2021/03/31 13:00:51;;;;;;;50.72;36.78;;;40.70;14.40;;;;;;5005288;28;20410;-67
2021/03/31 13:03:17;;;;;;;48.40;36.15;;;40.30;14.50;;;;;;4998485;28;20061;-62
2021/03/31 13:05:42;;;;;;;51.90;36.53;;;41.00;14.40;;;;;;5007245;28;20034;-67
2021/03/31 13:08:11;;;;;;;50.72;38.03;;;41.20;14.10;;;;;;4993964;28;20547;-67